Time;durP1;ratioP1;P1;durP2;ratioP2;P2;SDS_P1;SDS_P2;PMS_P1;PMS_P2;Temp;Humidity;BMP_temperature;BMP_pressure;BME280_temperature;BME280_humidity;BME280_pressure;Samples;Min_cycle;Max_cycle;Signal;HPM_P1;HPM_P2
2023/09/25 00:04:35;;;;;;;1.75;0.93;;;7.20;99.90;;;;;;25590025;23;20009;-59
2023/09/25 00:14:36;;;;;;;2.15;1.35;;;7.10;99.90;;;;;;25589910;23;20148;-59
2023/09/25 00:24:38;;;;;;;1.45;1.08;;;8.10;99.90;;;;;;25589462;23;20085;-59
2023/09/25 00:34:40;;;;;;;2.08;0.70;;;8.50;99.90;;;;;;25595514;23;20016;-52
2023/09/25 00:44:41;;;;;;;1.27;0.45;;;8.30;99.90;;;;;;25602845;23;20013;-58
2023/09/25 00:54:43;;;;;;;1.15;0.32;;;8.40;99.90;;;;;;25601551;23;20067;-59
2023/09/25 01:04:46;;;;;;;0.80;0.40;;;8.40;99.90;;;;;;25601088;23;20286;-53
2023/09/25 01:14:47;;;;;;;0.60;0.20;;;8.50;99.90;;;;;;25600748;23;20067;-50
2023/09/25 01:24:49;;;;;;;0.98;0.40;;;8.40;99.90;;;;;;25601959;23;20005;-59
2023/09/25 01:34:51;;;;;;;0.50;0.20;;;8.30;99.90;;;;;;25601785;23;20076;-52
2023/09/25 01:44:52;;;;;;;0.40;0.13;;;8.40;99.90;;;;;;25599176;23;20005;-59
2023/09/25 01:54:54;;;;;;;0.85;0.30;;;8.60;99.90;;;;;;25595268;23;20005;-59
2023/09/25 02:04:56;;;;;;;0.47;0.20;;;8.40;99.90;;;;;;25543257;23;20089;-60
2023/09/25 02:15:02;;;;;;;0.80;0.32;;;7.90;99.90;;;;;;25568178;23;20009;-59
2023/09/25 02:25:04;;;;;;;1.70;0.45;;;7.80;99.90;;;;;;25608572;23;20001;-48
2023/09/25 02:35:07;;;;;;;0.90;0.45;;;7.60;99.90;;;;;;25593190;23;20340;-49
2023/09/25 02:45:09;;;;;;;0.80;0.40;;;7.40;99.90;;;;;;25592897;23;20032;-58
2023/09/25 02:55:11;;;;;;;0.57;0.35;;;7.30;99.90;;;;;;25592693;23;20001;-49
2023/09/25 03:05:14;;;;;;;0.55;0.20;;;7.80;99.90;;;;;;25590615;23;20012;-51
2023/09/25 03:15:16;;;;;;;0.75;0.30;;;7.60;99.90;;;;;;25591831;23;20001;-50
2023/09/25 03:25:18;;;;;;;0.40;0.30;;;7.80;99.90;;;;;;25590977;23;20008;-48
2023/09/25 03:35:19;;;;;;;0.82;0.30;;;7.60;99.90;;;;;;25588759;23;20021;-58
2023/09/25 03:45:21;;;;;;;1.33;0.28;;;7.50;99.90;;;;;;25589742;23;20012;-52
2023/09/25 03:55:25;;;;;;;0.63;0.25;;;7.70;99.90;;;;;;25588053;23;20031;-48
2023/09/25 04:05:27;;;;;;;0.47;0.30;;;7.70;99.90;;;;;;25589243;23;20009;-52
2023/09/25 04:15:31;;;;;;;0.77;0.30;;;7.60;99.90;;;;;;25588749;23;20448;-50
2023/09/25 04:25:33;;;;;;;0.32;0.20;;;7.60;99.90;;;;;;25588530;23;20002;-51
2023/09/25 04:35:36;;;;;;;0.60;0.20;;;8.00;99.90;;;;;;25588574;23;20017;-59
2023/09/25 04:45:38;;;;;;;0.55;0.28;;;8.20;99.90;;;;;;25588108;23;20035;-50
2023/09/25 04:55:40;;;;;;;0.65;0.20;;;8.10;99.90;;;;;;25588332;23;20012;-53
2023/09/25 05:05:42;;;;;;;0.95;0.40;;;8.10;99.90;;;;;;25588104;23;20005;-52
2023/09/25 05:15:43;;;;;;;0.35;0.20;;;8.40;99.90;;;;;;25587913;23;20456;-51
2023/09/25 05:25:45;;;;;;;1.67;0.20;;;8.20;99.90;;;;;;25593821;23;20044;-49
2023/09/25 05:35:48;;;;;;;0.85;0.30;;;8.10;99.90;;;;;;25594853;23;20013;-51
2023/09/25 05:45:49;;;;;;;0.57;0.20;;;8.20;99.90;;;;;;25594651;23;20325;-52
2023/09/25 05:55:51;;;;;;;0.38;0.20;;;8.20;99.90;;;;;;25594123;23;20008;-49
2023/09/25 06:05:53;;;;;;;1.50;0.35;;;8.60;99.90;;;;;;25593712;23;20005;-51
2023/09/25 06:15:55;;;;;;;0.40;0.22;;;8.80;99.90;;;;;;25593860;23;20009;-51
2023/09/25 06:25:57;;;;;;;0.80;0.30;;;8.80;99.90;;;;;;25592835;23;20063;-58
2023/09/25 06:35:58;;;;;;;0.40;0.20;;;8.90;99.90;;;;;;25592492;23;20017;-52
2023/09/25 06:46:01;;;;;;;1.73;0.22;;;9.30;99.90;;;;;;25593412;23;20464;-60
2023/09/25 06:56:03;;;;;;;0.40;0.20;;;10.00;99.90;;;;;;25565227;23;20071;-53
2023/09/25 07:06:06;;;;;;;1.33;0.25;;;11.30;99.90;;;;;;25591461;23;20337;-59
2023/09/25 07:16:11;;;;;;;0.45;0.20;;;12.00;99.90;;;;;;25455746;23;20013;-53
2023/09/25 07:26:15;;;;;;;0.57;0.22;;;12.60;98.50;;;;;;25455246;23;20536;-60
2023/09/25 07:36:20;;;;;;;1.35;0.30;;;13.20;96.90;;;;;;25454964;23;20152;-60
2023/09/25 07:46:21;;;;;;;2.75;1.55;;;13.70;97.30;;;;;;25563837;23;20013;-53
2023/09/25 07:56:23;;;;;;;0.50;0.30;;;14.40;95.90;;;;;;25590905;23;20009;-52
2023/09/25 08:06:27;;;;;;;0.85;0.30;;;14.80;95.50;;;;;;25589183;23;20001;-60
2023/09/25 08:16:28;;;;;;;0.30;0.20;;;15.20;94.20;;;;;;25589317;23;20013;-60
2023/09/25 08:26:30;;;;;;;0.25;0.20;;;15.20;93.90;;;;;;25588915;23;20001;-61
2023/09/25 08:36:32;;;;;;;0.98;0.20;;;15.90;95.20;;;;;;25588155;23;20075;-61
2023/09/25 08:46:34;;;;;;;0.22;0.13;;;16.40;93.80;;;;;;25588620;23;20031;-50
2023/09/25 08:56:37;;;;;;;0.30;0.20;;;16.40;95.20;;;;;;25592143;23;20005;-52
2023/09/25 09:06:38;;;;;;;0.38;0.20;;;16.30;93.50;;;;;;25596184;23;20012;-60
2023/09/25 09:16:40;;;;;;;0.60;0.30;;;16.90;93.20;;;;;;25595898;23;20075;-60
2023/09/25 09:26:42;;;;;;;0.88;0.38;;;16.90;92.50;;;;;;25594713;23;20040;-48
2023/09/25 09:36:53;;;;;;;0.85;0.30;;;17.10;92.60;;;;;;25594270;23;20013;-60
2023/09/25 09:46:56;;;;;;;0.60;0.30;;;17.00;93.40;;;;;;25594081;23;20067;-60
2023/09/25 09:57:01;;;;;;;0.80;0.40;;;17.50;94.20;;;;;;25595367;23;20005;-61
2023/09/25 10:07:08;;;;;;;0.52;0.22;;;18.80;95.70;;;;;;25593215;23;20005;-61
2023/09/25 10:17:10;;;;;;;0.90;0.22;;;19.50;92.50;;;;;;25636151;23;20376;-60
2023/09/25 10:27:15;;;;;;;0.70;0.40;;;18.90;90.50;;;;;;25592231;23;20005;-60
2023/09/25 10:37:18;;;;;;;1.75;0.40;;;19.20;90.90;;;;;;25591908;23;20335;-60
2023/09/25 10:47:19;;;;;;;0.30;0.20;;;19.80;97.60;;;;;;25591509;23;20009;-53
2023/09/25 10:57:21;;;;;;;1.65;0.50;;;19.80;95.40;;;;;;25591476;23;20064;-60
2023/09/25 11:07:26;;;;;;;2.47;0.52;;;19.90;93.10;;;;;;25591279;23;20066;-61
2023/09/25 11:17:27;;;;;;;0.75;0.32;;;20.00;93.00;;;;;;25589706;23;20009;-61
2023/09/25 11:27:29;;;;;;;2.28;0.50;;;20.30;92.90;;;;;;25589511;23;20436;-61
2023/09/25 11:37:31;;;;;;;1.17;0.50;;;20.70;94.20;;;;;;25563839;23;20441;-61
2023/09/25 11:47:33;;;;;;;1.92;0.60;;;20.80;94.90;;;;;;25589705;23;20038;-61
2023/09/25 11:57:35;;;;;;;2.33;0.60;;;20.90;96.20;;;;;;25590154;23;20005;-61
2023/09/25 12:07:37;;;;;;;0.57;0.40;;;20.90;97.20;;;;;;25589580;23;20005;-62
2023/09/25 12:17:40;;;;;;;1.30;0.50;;;21.20;95.90;;;;;;25589115;23;20368;-62
2023/09/25 12:27:43;;;;;;;1.48;0.50;;;21.30;96.00;;;;;;25589100;23;20451;-61
2023/09/25 12:37:47;;;;;;;2.50;0.60;;;21.40;96.00;;;;;;25629727;23;20009;-63
2023/09/25 12:47:50;;;;;;;1.65;0.65;;;21.20;95.60;;;;;;25588313;23;20067;-62
2023/09/25 12:57:52;;;;;;;2.50;0.80;;;21.10;94.90;;;;;;25588083;23;20005;-62
2023/09/25 13:07:54;;;;;;;2.28;0.70;;;21.10;96.20;;;;;;25587835;23;20009;-63
2023/09/25 13:17:56;;;;;;;1.20;0.60;;;21.00;95.90;;;;;;25587505;23;20067;-63
2023/09/25 13:27:58;;;;;;;1.17;0.60;;;21.20;96.00;;;;;;25586447;23;20009;-63
2023/09/25 13:37:59;;;;;;;2.75;0.70;;;20.70;96.20;;;;;;25587079;23;20457;-62
2023/09/25 13:48:01;;;;;;;3.00;0.88;;;20.00;95.60;;;;;;25594659;23;20009;-61
2023/09/25 13:58:03;;;;;;;1.17;0.70;;;19.40;97.70;;;;;;25594587;23;20005;-62
2023/09/25 14:08:05;;;;;;;1.60;0.80;;;19.10;97.00;;;;;;25593962;23;20009;-61
2023/09/25 14:18:08;;;;;;;1.60;0.75;;;18.70;98.20;;;;;;25593734;23;20016;-61
2023/09/25 14:28:14;;;;;;;2.58;0.60;;;18.60;98.70;;;;;;25592845;23;20073;-61
2023/09/25 14:38:16;;;;;;;1.88;0.80;;;18.20;98.10;;;;;;25592647;23;20488;-61
2023/09/25 14:48:17;;;;;;;1.00;0.60;;;17.80;98.30;;;;;;25592326;23;20012;-61
2023/09/25 14:58:19;;;;;;;1.63;0.75;;;17.30;99.30;;;;;;25591855;23;20007;-61
2023/09/25 15:08:25;;;;;;;2.58;0.80;;;16.90;99.90;;;;;;25591645;23;20001;-63
2023/09/25 15:18:27;;;;;;;2.85;0.75;;;16.60;99.90;;;;;;25632556;23;20008;-54
2023/09/25 15:28:29;;;;;;;4.88;1.00;;;16.20;99.90;;;;;;25590601;23;20013;-60
2023/09/25 15:38:32;;;;;;;2.60;0.63;;;16.10;99.90;;;;;;25590601;23;20009;-61
2023/09/25 15:48:33;;;;;;;1.50;0.80;;;15.60;99.90;;;;;;25589977;23;20028;-60
2023/09/25 15:58:35;;;;;;;1.73;0.70;;;14.70;99.90;;;;;;25589940;23;20009;-60
2023/09/25 16:08:37;;;;;;;2.75;0.85;;;13.90;99.90;;;;;;25589025;23;20020;-60
2023/09/25 16:18:39;;;;;;;2.13;1.13;;;13.30;99.90;;;;;;25588718;23;20077;-60
2023/09/25 16:28:41;;;;;;;2.45;0.90;;;12.90;99.90;;;;;;25588958;23;20005;-47
2023/09/25 16:38:43;;;;;;;1.83;0.95;;;12.50;99.90;;;;;;25589186;23;20071;-59
2023/09/25 16:48:45;;;;;;;3.17;1.15;;;12.20;99.90;;;;;;25562665;23;20025;-59
2023/09/25 16:58:47;;;;;;;1.73;1.13;;;11.90;99.90;;;;;;25588722;23;20060;-60
2023/09/25 17:08:49;;;;;;;3.17;1.15;;;11.70;99.90;;;;;;25588931;23;20005;-59
2023/09/25 17:18:50;;;;;;;3.35;1.38;;;11.80;99.90;;;;;;25593547;23;20051;-60
2023/09/25 17:28:52;;;;;;;1.65;1.17;;;11.50;99.90;;;;;;25596200;23;20009;-60
2023/09/25 17:38:54;;;;;;;2.28;1.38;;;11.30;99.90;;;;;;25596119;23;20063;-60
2023/09/25 17:48:56;;;;;;;4.32;1.52;;;11.20;99.90;;;;;;25597093;23;20083;-59
2023/09/25 17:58:57;;;;;;;2.60;1.48;;;11.00;99.90;;;;;;25595119;23;20009;-59
2023/09/25 18:08:59;;;;;;;3.90;1.80;;;11.00;99.90;;;;;;25594903;23;20067;-59
2023/09/25 18:19:03;;;;;;;4.78;1.73;;;10.80;99.90;;;;;;25594535;23;20009;-59
2023/09/25 18:29:04;;;;;;;3.13;1.88;;;10.70;99.90;;;;;;25593130;23;20332;-59
2023/09/25 18:39:07;;;;;;;3.20;1.80;;;10.60;99.90;;;;;;25593670;23;20005;-58
2023/09/25 18:49:08;;;;;;;5.82;1.70;;;10.70;99.90;;;;;;25593309;23;20009;-50
2023/09/25 18:59:10;;;;;;;3.05;1.80;;;11.10;99.90;;;;;;25592885;23;20013;-59
2023/09/25 19:09:12;;;;;;;4.30;2.10;;;11.20;99.90;;;;;;25590224;23;20068;-52
2023/09/25 19:19:14;;;;;;;4.78;1.77;;;11.10;99.90;;;;;;25591911;23;20005;-60
2023/09/25 19:29:16;;;;;;;7.88;2.40;;;11.10;99.90;;;;;;25591246;23;20009;-53
2023/09/25 19:39:18;;;;;;;3.65;1.83;;;10.90;99.90;;;;;;25590521;23;20009;-50
2023/09/25 19:49:20;;;;;;;3.80;1.70;;;10.80;99.90;;;;;;25590519;23;20514;-52
2023/09/25 19:59:22;;;;;;;2.33;1.70;;;10.60;99.90;;;;;;25590266;23;20001;-59
2023/09/25 20:09:24;;;;;;;2.50;1.60;;;10.40;99.90;;;;;;25590168;23;20008;-51
2023/09/25 20:19:25;;;;;;;6.47;1.75;;;10.50;99.90;;;;;;25589880;23;20005;-50
2023/09/25 20:29:27;;;;;;;4.03;1.60;;;10.60;99.90;;;;;;25589065;23;20009;-49
2023/09/25 20:39:29;;;;;;;3.35;1.65;;;10.40;99.90;;;;;;25589165;23;20009;-52
2023/09/25 20:49:31;;;;;;;2.85;1.60;;;10.60;99.90;;;;;;25590868;23;20072;-51
2023/09/25 20:59:33;;;;;;;3.17;2.03;;;10.70;99.90;;;;;;25596026;23;20020;-48
2023/09/25 21:09:34;;;;;;;3.33;1.75;;;10.40;99.90;;;;;;25597141;23;20016;-59
2023/09/25 21:19:36;;;;;;;2.47;1.45;;;10.40;99.90;;;;;;25596558;23;20052;-59
2023/09/25 21:29:40;;;;;;;2.03;1.50;;;10.30;99.90;;;;;;25595764;23;20401;-59
2023/09/25 21:39:41;;;;;;;2.15;1.60;;;10.20;99.90;;;;;;25595901;23;20008;-49
2023/09/25 21:49:43;;;;;;;2.60;1.70;;;10.30;99.90;;;;;;25595820;23;20337;-59
2023/09/25 21:59:48;;;;;;;2.75;1.70;;;10.30;99.90;;;;;;25594780;23;20005;-50
2023/09/25 22:09:49;;;;;;;3.95;1.58;;;10.80;99.90;;;;;;25594760;23;20009;-58
2023/09/25 22:19:53;;;;;;;4.45;1.60;;;11.00;99.90;;;;;;25594392;23;20506;-59
2023/09/25 22:29:54;;;;;;;4.70;1.90;;;10.80;99.90;;;;;;25593613;23;20336;-52
2023/09/25 22:39:56;;;;;;;3.05;1.70;;;10.30;99.90;;;;;;25593631;23;20005;-52
2023/09/25 22:49:58;;;;;;;4.65;2.47;;;10.40;99.90;;;;;;25593158;23;20013;-53
2023/09/25 23:00:00;;;;;;;3.65;1.67;;;10.10;99.90;;;;;;25541681;23;20013;-51
2023/09/25 23:10:01;;;;;;;2.97;2.05;;;10.00;99.90;;;;;;25592552;23;20008;-59
2023/09/25 23:20:14;;;;;;;3.17;1.92;;;10.20;99.90;;;;;;25591808;23;20005;-59
2023/09/25 23:30:18;;;;;;;2.60;1.70;;;10.20;99.90;;;;;;25621191;23;20036;-50
2023/09/25 23:40:21;;;;;;;3.88;1.80;;;10.20;99.90;;;;;;25591126;23;20004;-59
2023/09/25 23:50:24;;;;;;;3.60;2.13;;;10.10;99.90;;;;;;25590904;23;20059;-59
